createdAt,value
2022-08-04T00:00:14.483Z,999.59
2022-08-04T00:01:18.892Z,999.55
2022-08-04T00:02:23.233Z,999.57
2022-08-04T00:03:27.601Z,999.57
2022-08-04T00:04:31.974Z,999.59
2022-08-04T00:05:36.335Z,999.59
2022-08-04T00:06:40.735Z,999.56
2022-08-04T00:07:45.404Z,999.54
2022-08-04T00:08:49.464Z,999.53
2022-08-04T00:09:53.833Z,999.53
2022-08-04T00:10:58.195Z,999.52
2022-08-04T00:12:02.594Z,999.53
2022-08-04T00:13:06.957Z,999.52
2022-08-04T00:14:11.314Z,999.50
2022-08-04T00:15:16.713Z,999.49
2022-08-04T00:16:20.045Z,999.51
2022-08-04T00:17:24.425Z,999.54
2022-08-04T00:18:28.778Z,999.53
2022-08-04T00:19:33.158Z,999.55
2022-08-04T00:20:37.517Z,999.53
2022-08-04T00:21:41.978Z,999.57
2022-08-04T00:22:46.356Z,999.52
2022-08-04T00:24:10.496Z,999.50
2022-08-04T00:24:55.096Z,999.48
2022-08-04T00:26:00.330Z,999.55
2022-08-04T00:27:04.707Z,999.54
2022-08-04T00:28:09.287Z,999.55
2022-08-04T00:29:13.500Z,999.58
2022-08-04T00:30:17.867Z,999.54
2022-08-04T00:31:54.219Z,999.52
2022-08-04T00:32:34.125Z,999.54
2022-08-04T00:33:30.998Z,999.51
2022-08-04T00:34:35.368Z,999.53
2022-08-04T00:35:39.732Z,999.52
2022-08-04T00:36:44.098Z,999.52
2022-08-04T00:37:48.496Z,999.56
2022-08-04T00:38:52.892Z,999.53
2022-08-04T00:39:57.221Z,999.52
2022-08-04T00:41:01.580Z,999.56
2022-08-04T00:42:05.971Z,999.54
2022-08-04T00:43:10.331Z,999.54
2022-08-04T00:44:14.703Z,999.52
2022-08-04T00:45:19.075Z,999.50
2022-08-04T00:46:23.431Z,999.55
2022-08-04T00:47:27.819Z,999.53
2022-08-04T00:48:32.181Z,999.52
2022-08-04T00:49:36.571Z,999.53
2022-08-04T00:50:40.933Z,999.49
2022-08-04T00:51:45.300Z,999.51
2022-08-04T00:52:49.682Z,999.51
2022-08-04T00:53:54.058Z,999.51
2022-08-04T00:54:58.413Z,999.47
2022-08-04T00:56:02.792Z,999.51
2022-08-04T00:57:07.151Z,999.46
2022-08-04T00:58:11.541Z,999.47
2022-08-04T00:59:15.907Z,999.48
2022-08-04T01:00:20.265Z,999.46
2022-08-04T01:01:24.915Z,999.43
2022-08-04T01:02:29.156Z,999.45
2022-08-04T01:03:33.521Z,999.41
2022-08-04T01:04:37.876Z,999.41
2022-08-04T01:05:42.242Z,999.44
2022-08-04T01:06:50.880Z,999.39
2022-08-04T01:07:51.005Z,999.40
2022-08-04T01:08:55.373Z,999.41
2022-08-04T01:09:59.735Z,999.41
2022-08-04T01:11:04.104Z,999.38
2022-08-04T01:12:08.490Z,999.37
2022-08-04T01:13:15.473Z,999.37
2022-08-04T01:14:17.234Z,999.35
2022-08-04T01:15:21.595Z,999.35
2022-08-04T01:16:25.964Z,999.33
2022-08-04T01:17:30.346Z,999.35
2022-08-04T01:18:34.728Z,999.39
2022-08-04T01:19:39.097Z,999.31
2022-08-04T01:20:43.468Z,999.35
2022-08-04T01:21:47.827Z,999.36
2022-08-04T01:22:52.216Z,999.33
2022-08-04T01:23:56.587Z,999.35
2022-08-04T01:25:02.359Z,999.31
2022-08-04T01:26:42.344Z,999.29
2022-08-04T01:27:09.724Z,999.34
2022-08-04T01:28:14.078Z,999.32
2022-08-04T01:29:18.457Z,999.35
2022-08-04T01:30:22.819Z,999.31
2022-08-04T01:31:27.189Z,999.30
2022-08-04T01:32:31.578Z,999.28
2022-08-04T01:33:58.512Z,999.27
2022-08-04T01:34:40.333Z,999.25
2022-08-04T01:35:47.289Z,999.28
2022-08-04T01:36:50.023Z,999.30
2022-08-04T01:37:53.457Z,999.25
2022-08-04T01:38:57.843Z,999.24
2022-08-04T01:40:02.202Z,999.24
2022-08-04T01:41:06.576Z,999.22
2022-08-04T01:42:10.940Z,999.20
2022-08-04T01:43:15.322Z,999.20
2022-08-04T01:44:19.691Z,999.17
2022-08-04T01:45:24.069Z,999.18
2022-08-04T01:46:28.430Z,999.19
2022-08-04T01:47:32.835Z,999.17
2022-08-04T01:48:37.274Z,999.15
2022-08-04T01:49:41.610Z,999.18
2022-08-04T01:50:45.991Z,999.18
2022-08-04T01:51:50.460Z,999.18
2022-08-04T01:52:54.755Z,999.16
2022-08-04T01:53:59.122Z,999.16
2022-08-04T01:55:03.484Z,999.19
2022-08-04T01:56:07.851Z,999.19
2022-08-04T01:57:45.948Z,999.15
2022-08-04T01:58:16.609Z,999.13
2022-08-04T01:59:20.972Z,999.15
2022-08-04T02:00:25.360Z,999.12
2022-08-04T02:01:29.777Z,999.11
2022-08-04T02:02:34.196Z,999.09
2022-08-04T02:04:18.362Z,999.07
2022-08-04T02:04:42.861Z,999.06
2022-08-04T02:06:03.070Z,999.05
2022-08-04T02:06:51.597Z,999.03
2022-08-04T02:07:55.984Z,999.02
2022-08-04T02:09:00.355Z,999.00
2022-08-04T02:10:04.723Z,998.97
2022-08-04T02:11:09.084Z,998.97
2022-08-04T02:12:16.305Z,998.95
2022-08-04T02:13:17.847Z,998.93
2022-08-04T02:14:22.222Z,998.91
2022-08-04T02:15:26.585Z,998.89
2022-08-04T02:16:31.825Z,998.90
2022-08-04T02:17:36.196Z,998.90
2022-08-04T02:18:40.586Z,998.85
2022-08-04T02:19:44.966Z,998.84
2022-08-04T02:20:49.335Z,998.86
2022-08-04T02:21:53.695Z,998.80
2022-08-04T02:22:58.066Z,998.79
2022-08-04T02:24:02.457Z,998.81
2022-08-04T02:25:06.827Z,998.80
2022-08-04T02:26:13.282Z,998.74
2022-08-04T02:27:15.558Z,998.76
2022-08-04T02:28:19.955Z,998.73
2022-08-04T02:29:24.325Z,998.76
2022-08-04T02:30:28.686Z,998.64
2022-08-04T02:31:33.068Z,998.70
2022-08-04T02:32:37.438Z,998.66
2022-08-04T02:33:41.825Z,998.65
2022-08-04T02:34:46.187Z,998.68
2022-08-04T02:35:50.559Z,998.62
2022-08-04T02:36:54.939Z,998.63
2022-08-04T02:37:59.308Z,998.66
2022-08-04T02:39:03.731Z,998.63
2022-08-04T02:40:08.069Z,998.62
2022-08-04T02:41:12.450Z,998.63
2022-08-04T02:42:16.818Z,998.57
2022-08-04T02:43:51.330Z,998.54
2022-08-04T02:44:25.590Z,998.57
2022-08-04T02:45:29.949Z,998.48
2022-08-04T02:46:34.323Z,998.53
2022-08-04T02:48:28.745Z,998.48
2022-08-04T02:48:43.082Z,998.50
2022-08-04T02:49:47.451Z,998.50
2022-08-04T02:50:52.070Z,998.51
2022-08-04T02:51:56.222Z,998.50
2022-08-04T02:53:00.613Z,998.44
2022-08-04T02:54:04.982Z,998.46
2022-08-04T02:55:09.362Z,998.42
2022-08-04T02:56:13.731Z,998.41
2022-08-04T02:57:18.119Z,998.40
2022-08-04T02:58:22.481Z,998.38
2022-08-04T02:59:26.881Z,998.39
2022-08-04T03:00:31.253Z,998.39
2022-08-04T03:01:35.668Z,998.37
2022-08-04T03:02:40.000Z,998.36
2022-08-04T03:03:44.380Z,998.34
2022-08-04T03:04:48.772Z,998.34
2022-08-04T03:06:00.856Z,998.34
2022-08-04T03:06:57.525Z,998.33
2022-08-04T03:08:01.913Z,998.29
2022-08-04T03:09:06.304Z,998.29
2022-08-04T03:10:10.684Z,998.31
2022-08-04T03:11:15.067Z,998.32
2022-08-04T03:12:19.440Z,998.31
2022-08-04T03:13:23.807Z,998.29
2022-08-04T03:14:28.202Z,998.29
2022-08-04T03:15:32.572Z,998.26
2022-08-04T03:16:38.908Z,998.27
2022-08-04T03:17:52.646Z,998.22
2022-08-04T03:18:45.714Z,998.27
2022-08-04T03:19:50.075Z,998.25
2022-08-04T03:20:54.458Z,998.23
2022-08-04T03:21:58.825Z,998.22
2022-08-04T03:23:18.353Z,998.22
2022-08-04T03:24:07.595Z,998.23
2022-08-04T03:25:11.966Z,998.21
2022-08-04T03:26:16.340Z,998.19
2022-08-04T03:27:21.034Z,998.21
2022-08-04T03:28:25.080Z,998.21
2022-08-04T03:29:36.665Z,998.19
2022-08-04T03:30:33.851Z,998.18
2022-08-04T03:31:38.217Z,998.19
2022-08-04T03:32:42.580Z,998.14
2022-08-04T03:33:46.948Z,998.15
2022-08-04T03:34:51.350Z,998.15
2022-08-04T03:35:55.716Z,998.10
2022-08-04T03:37:00.111Z,998.11
2022-08-04T03:38:04.451Z,998.12
2022-08-04T03:39:08.884Z,998.09
2022-08-04T03:40:13.222Z,998.13
2022-08-04T03:41:17.589Z,998.14
2022-08-04T03:42:21.959Z,998.13
2022-08-04T03:43:58.808Z,998.13
2022-08-04T03:44:30.739Z,998.12
2022-08-04T03:45:35.108Z,998.11
2022-08-04T03:46:39.492Z,998.09
2022-08-04T03:47:44.534Z,998.08
2022-08-04T03:48:48.240Z,998.12
2022-08-04T03:49:52.636Z,998.07
2022-08-04T03:50:57.010Z,998.06
2022-08-04T03:52:01.390Z,998.10
2022-08-04T03:53:05.751Z,998.08
2022-08-04T03:54:10.131Z,998.12
2022-08-04T03:55:14.533Z,998.11
2022-08-04T03:56:18.901Z,998.12
2022-08-04T03:57:23.618Z,998.13
2022-08-04T03:58:30.539Z,998.13
2022-08-04T03:59:32.013Z,998.12
2022-08-04T04:00:36.404Z,998.15
2022-08-04T04:02:02.845Z,998.14
2022-08-04T04:02:45.234Z,998.12
2022-08-04T04:03:49.531Z,998.15
2022-08-04T04:04:55.179Z,998.18
2022-08-04T04:06:00.344Z,998.19
2022-08-04T04:07:03.526Z,998.19
2022-08-04T04:08:12.519Z,998.18
2022-08-04T04:09:16.198Z,998.20
2022-08-04T04:10:15.815Z,998.18
2022-08-04T04:11:20.183Z,998.19
2022-08-04T04:12:24.558Z,998.18
2022-08-04T04:13:28.924Z,998.19
2022-08-04T04:14:33.295Z,998.18
2022-08-04T04:15:37.691Z,998.15
2022-08-04T04:16:42.062Z,998.17
2022-08-04T04:17:46.424Z,998.14
2022-08-04T04:18:50.810Z,998.12
2022-08-04T04:19:58.661Z,998.12
2022-08-04T04:20:59.565Z,998.15
2022-08-04T04:22:03.936Z,998.13
2022-08-04T04:23:10.355Z,998.12
2022-08-04T04:24:12.695Z,998.09
2022-08-04T04:25:17.094Z,998.10
2022-08-04T04:26:21.465Z,998.08
2022-08-04T04:27:25.857Z,998.06
2022-08-04T04:28:43.745Z,998.07
2022-08-04T04:29:34.597Z,998.05
2022-08-04T04:30:38.997Z,998.00
2022-08-04T04:31:43.433Z,998.02
2022-08-04T04:32:47.807Z,998.04
2022-08-04T04:33:52.188Z,998.05
2022-08-04T04:34:56.557Z,998.04
2022-08-04T04:36:00.949Z,998.02
2022-08-04T04:37:05.330Z,998.06
2022-08-04T04:38:09.714Z,997.98
2022-08-04T04:39:14.147Z,997.97
2022-08-04T04:40:18.458Z,997.97
2022-08-04T04:41:22.858Z,997.95
2022-08-04T04:42:27.238Z,997.98
2022-08-04T04:43:52.208Z,997.99
2022-08-04T04:59:56.257Z,998.00
2022-08-04T05:01:00.692Z,998.00
2022-08-04T05:02:05.155Z,997.96
2022-08-04T05:03:09.717Z,997.96
2022-08-04T05:04:13.987Z,997.95
2022-08-04T05:05:18.398Z,997.96
2022-08-04T05:06:22.851Z,997.97
2022-08-04T05:07:27.255Z,997.91
2022-08-04T05:08:45.383Z,997.94
2022-08-04T05:09:36.072Z,997.97
2022-08-04T05:10:40.491Z,997.97
2022-08-04T05:11:44.908Z,997.96
2022-08-04T05:14:32.719Z,998.01
2022-08-04T05:14:34.421Z,998.00
2022-08-04T05:14:58.110Z,998.02
2022-08-04T05:16:02.530Z,998.02
2022-08-04T05:17:06.969Z,998.01
2022-08-04T05:18:11.362Z,997.98
2022-08-04T05:19:15.762Z,998.01
2022-08-04T05:20:20.182Z,998.04
2022-08-04T05:21:24.583Z,998.00
2022-08-04T05:22:29.007Z,998.00
2022-08-04T05:23:33.411Z,998.03
2022-08-04T05:24:37.810Z,997.99
2022-08-04T05:25:42.221Z,998.00
2022-08-04T05:26:46.641Z,998.01
2022-08-04T05:27:51.051Z,998.03
2022-08-04T05:28:55.462Z,998.03
2022-08-04T05:29:59.862Z,998.03
2022-08-04T05:31:04.261Z,998.03
2022-08-04T05:32:08.683Z,998.00
2022-08-04T05:33:13.084Z,998.02
2022-08-04T05:34:17.492Z,998.03
2022-08-04T05:36:15.980Z,998.05
2022-08-04T05:36:40.589Z,998.04
2022-08-04T05:37:31.644Z,998.05
2022-08-04T05:38:36.052Z,998.00
2022-08-04T05:39:40.484Z,997.98
2022-08-04T05:40:44.852Z,997.98
2022-08-04T05:41:55.711Z,997.98
2022-08-04T05:42:53.674Z,997.95
2022-08-04T05:43:58.072Z,997.94
2022-08-04T05:45:02.473Z,997.90
2022-08-04T05:46:06.869Z,997.86
2022-08-04T05:47:11.285Z,997.83
2022-08-04T05:48:15.683Z,997.83
2022-08-04T05:49:22.170Z,997.79
2022-08-04T05:50:24.484Z,997.80
2022-08-04T05:51:28.885Z,997.81
2022-08-04T05:52:33.305Z,997.81
2022-08-04T05:53:37.716Z,997.84
2022-08-04T05:54:42.113Z,997.85
2022-08-04T05:55:57.090Z,997.84
2022-08-04T05:56:50.909Z,997.82
2022-08-04T05:57:55.793Z,997.82
2022-08-04T05:58:59.742Z,997.86
2022-08-04T06:00:14.854Z,997.85
2022-08-04T06:01:08.544Z,997.83
2022-08-04T06:02:13.037Z,997.87
2022-08-04T06:03:17.395Z,997.88
2022-08-04T06:04:21.798Z,997.85
2022-08-04T06:05:26.197Z,997.88
2022-08-04T06:06:30.596Z,997.88
2022-08-04T06:07:35.008Z,997.83
2022-08-04T06:08:39.417Z,997.85
2022-08-04T06:09:43.819Z,997.88
2022-08-04T06:10:48.209Z,997.86
2022-08-04T06:12:00.789Z,997.88
2022-08-04T06:12:57.142Z,997.89
2022-08-04T06:14:01.543Z,997.87
2022-08-04T06:15:05.938Z,997.87
2022-08-04T06:16:28.567Z,997.86
2022-08-04T06:18:32.863Z,997.87
2022-08-04T06:18:33.428Z,997.86
2022-08-04T06:20:03.891Z,997.84
2022-08-04T06:20:28.308Z,997.86
2022-08-04T06:21:32.322Z,997.82
2022-08-04T06:22:36.739Z,997.82
2022-08-04T06:23:56.930Z,997.82
2022-08-04T06:24:45.580Z,997.86
2022-08-04T06:25:49.980Z,997.83
2022-08-04T06:26:54.384Z,997.84
2022-08-04T06:27:58.803Z,997.85
2022-08-04T06:29:03.201Z,997.86
2022-08-04T06:30:07.601Z,997.88
2022-08-04T06:32:27.333Z,997.85
2022-08-04T06:32:30.120Z,997.81
2022-08-04T06:33:20.820Z,997.85
2022-08-04T06:34:25.224Z,997.86
2022-08-04T06:35:29.619Z,997.87
2022-08-04T06:36:34.015Z,997.85
2022-08-04T06:37:43.573Z,997.88
2022-08-04T06:38:42.844Z,997.88
2022-08-04T06:39:47.254Z,997.83
2022-08-04T06:40:51.650Z,997.82
2022-08-04T06:42:19.303Z,997.82
2022-08-04T06:43:00.477Z,997.83
2022-08-04T06:44:04.875Z,997.84
2022-08-04T06:45:09.264Z,997.79
2022-08-04T06:46:13.655Z,997.78
2022-08-04T06:47:18.085Z,997.80
2022-08-04T06:48:22.504Z,997.85
2022-08-04T06:49:26.894Z,997.77
2022-08-04T06:51:24.917Z,997.81
2022-08-04T06:51:45.138Z,997.87
2022-08-04T06:52:40.496Z,997.85
2022-08-04T06:53:44.886Z,997.83
2022-08-04T06:54:49.283Z,997.83
2022-08-04T06:55:53.686Z,997.82
2022-08-04T06:56:58.086Z,997.73
2022-08-04T06:58:03.249Z,997.79
2022-08-04T06:59:06.906Z,997.77
2022-08-04T07:00:11.306Z,997.79
2022-08-04T07:01:15.748Z,997.76
2022-08-04T07:02:20.096Z,997.77
2022-08-04T07:03:24.522Z,997.78
2022-08-04T07:04:28.915Z,997.76
2022-08-04T07:05:33.316Z,997.82
2022-08-04T07:06:37.709Z,997.75
2022-08-04T07:07:57.293Z,997.75
2022-08-04T07:08:46.536Z,997.74
2022-08-04T07:09:50.943Z,997.77
2022-08-04T07:10:55.328Z,997.73
2022-08-04T07:11:59.730Z,997.73
2022-08-04T07:13:04.146Z,997.72
2022-08-04T07:14:08.539Z,997.68
2022-08-04T07:15:14.286Z,997.71
2022-08-04T07:16:17.338Z,997.69
2022-08-04T07:17:22.066Z,997.69
2022-08-04T07:18:26.153Z,997.66
2022-08-04T07:19:30.548Z,997.66
2022-08-04T07:20:36.849Z,997.71
2022-08-04T07:21:39.340Z,997.73
2022-08-04T07:22:43.751Z,997.69
2022-08-04T07:23:48.170Z,997.66
2022-08-04T07:24:52.570Z,997.67
2022-08-04T07:26:12.350Z,997.67
2022-08-04T07:27:01.396Z,997.66
2022-08-04T07:28:05.814Z,997.68
2022-08-04T07:29:10.211Z,997.65
2022-08-04T07:30:14.610Z,997.67
2022-08-04T07:31:34.150Z,997.66
2022-08-04T07:32:24.261Z,997.69
2022-08-04T07:33:28.730Z,997.69
2022-08-04T07:34:33.081Z,997.68
2022-08-04T07:36:04.820Z,997.66
2022-08-04T07:36:50.553Z,997.66
2022-08-04T07:37:46.285Z,997.65
2022-08-04T07:38:51.765Z,997.67
2022-08-04T07:39:55.139Z,997.62
2022-08-04T07:40:59.490Z,997.63
2022-08-04T07:42:03.895Z,997.62
2022-08-04T07:43:08.283Z,997.62
2022-08-04T07:44:12.703Z,997.65
2022-08-04T07:45:17.094Z,997.64
2022-08-04T07:46:21.514Z,997.63
2022-08-04T07:47:25.926Z,997.64
2022-08-04T07:48:30.346Z,997.63
2022-08-04T07:49:55.530Z,997.61
2022-08-04T07:50:39.135Z,997.58
2022-08-04T07:51:43.541Z,997.57
2022-08-04T07:52:58.706Z,997.59
2022-08-04T07:53:52.863Z,997.60
2022-08-04T07:54:56.756Z,997.59
2022-08-04T07:56:01.167Z,997.54
2022-08-04T07:57:05.566Z,997.59
2022-08-04T07:58:09.953Z,997.59
2022-08-04T07:59:14.366Z,997.60
2022-08-04T08:00:18.765Z,997.53
2022-08-04T08:01:23.180Z,997.61
2022-08-04T08:02:27.627Z,997.58
2022-08-04T08:03:32.082Z,997.62
2022-08-04T08:04:36.460Z,997.61
2022-08-04T08:06:16.739Z,997.60
2022-08-04T08:06:45.247Z,997.57
2022-08-04T08:07:50.055Z,997.57
2022-08-04T08:08:54.075Z,997.59
2022-08-04T08:09:58.476Z,997.58
2022-08-04T08:11:02.869Z,997.61
2022-08-04T08:12:35.505Z,997.60
2022-08-04T08:13:11.669Z,997.61
2022-08-04T08:14:16.078Z,997.58
2022-08-04T08:15:20.495Z,997.55
2022-08-04T08:16:25.434Z,997.55
2022-08-04T08:17:29.261Z,997.52
2022-08-04T08:18:33.680Z,997.54
2022-08-04T08:19:38.092Z,997.56
2022-08-04T08:20:42.490Z,997.56
2022-08-04T08:21:58.968Z,997.49
2022-08-04T08:22:51.310Z,997.55
2022-08-04T08:23:55.729Z,997.54
2022-08-04T08:25:00.124Z,997.56
2022-08-04T08:26:04.522Z,997.57
2022-08-04T08:27:08.930Z,997.54
2022-08-04T08:28:13.321Z,997.61
2022-08-04T08:29:17.749Z,997.54
2022-08-04T08:30:22.139Z,997.57
2022-08-04T08:31:57.338Z,997.55
2022-08-04T08:32:30.941Z,997.56
2022-08-04T08:33:35.341Z,997.52
2022-08-04T08:34:39.753Z,997.57
2022-08-04T08:35:52.108Z,997.52
2022-08-04T08:36:48.560Z,997.56
2022-08-04T08:37:52.953Z,997.62
2022-08-04T08:38:57.389Z,997.62
2022-08-04T08:40:01.781Z,997.60
2022-08-04T08:41:06.170Z,997.64
2022-08-04T08:42:10.560Z,997.63
2022-08-04T08:44:03.958Z,997.57
2022-08-04T08:44:36.510Z,997.59
2022-08-04T08:45:23.774Z,997.59
2022-08-04T08:46:47.968Z,997.62
2022-08-04T08:47:58.465Z,997.55
2022-08-04T08:48:36.966Z,997.56
2022-08-04T08:50:02.679Z,997.64
2022-08-04T08:50:45.796Z,997.62
2022-08-04T08:51:50.175Z,997.67
2022-08-04T08:52:57.484Z,997.62
2022-08-04T08:53:58.984Z,997.62
2022-08-04T08:55:03.405Z,997.62
2022-08-04T08:56:07.794Z,997.59
2022-08-04T08:57:12.197Z,997.59
2022-08-04T08:58:16.583Z,997.60
2022-08-04T08:59:21.015Z,997.61
2022-08-04T09:00:31.820Z,997.61
2022-08-04T09:01:29.840Z,997.66
2022-08-04T09:02:34.197Z,997.59
2022-08-04T09:03:38.595Z,997.64
2022-08-04T09:04:43.006Z,997.63
2022-08-04T09:05:47.405Z,997.66
2022-08-04T09:06:51.795Z,997.62
2022-08-04T09:07:56.187Z,997.62
2022-08-04T09:09:00.577Z,997.56
2022-08-04T09:10:04.998Z,997.60
2022-08-04T09:11:09.351Z,997.59
2022-08-04T09:12:13.730Z,997.58
2022-08-04T09:13:18.126Z,997.55
2022-08-04T09:14:22.508Z,997.55
2022-08-04T09:15:26.928Z,997.57
2022-08-04T09:16:31.319Z,997.57
2022-08-04T09:17:35.711Z,997.57
2022-08-04T09:18:40.958Z,997.58
2022-08-04T09:19:45.356Z,997.60
2022-08-04T09:20:49.776Z,997.59
2022-08-04T09:21:54.169Z,997.63
2022-08-04T09:22:58.568Z,997.58
2022-08-04T09:24:03.011Z,997.55
2022-08-04T09:25:07.392Z,997.53
2022-08-04T09:26:11.769Z,997.51
2022-08-04T09:27:16.170Z,997.53
2022-08-04T09:28:43.668Z,997.48
2022-08-04T09:29:24.957Z,997.51
2022-08-04T09:30:29.376Z,997.46
2022-08-04T09:31:48.741Z,997.53
2022-08-04T09:32:38.191Z,997.50
2022-08-04T09:33:45.688Z,997.51
2022-08-04T09:34:46.997Z,997.53
2022-08-04T09:35:51.430Z,997.63
2022-08-04T09:36:55.825Z,997.50
2022-08-04T09:38:00.229Z,997.48
2022-08-04T09:39:04.641Z,997.50
2022-08-04T09:40:09.042Z,997.50
2022-08-04T09:41:39.468Z,997.48
2022-08-04T09:42:17.833Z,997.45
2022-08-04T09:43:22.236Z,997.43
2022-08-04T09:44:52.610Z,997.44
2022-08-04T09:45:42.733Z,997.45
2022-08-04T09:46:35.456Z,997.41
2022-08-04T09:47:40.720Z,997.42
2022-08-04T09:48:44.239Z,997.42
2022-08-04T09:49:48.632Z,997.51
2022-08-04T09:50:53.062Z,997.42
2022-08-04T09:51:59.621Z,997.54
2022-08-04T09:53:01.854Z,997.47
2022-08-04T09:54:06.260Z,997.43
2022-08-04T09:55:10.646Z,997.42
2022-08-04T09:56:15.065Z,997.52
2022-08-04T09:57:19.465Z,997.46
2022-08-04T09:58:23.853Z,997.41
2022-08-04T09:59:28.249Z,997.41
2022-08-04T10:00:41.044Z,997.40
2022-08-04T10:01:37.055Z,997.41
2022-08-04T10:02:41.489Z,997.38
2022-08-04T10:03:45.841Z,997.36
2022-08-04T10:04:50.238Z,997.34
2022-08-04T10:05:54.659Z,997.36
2022-08-04T10:06:59.058Z,997.38
2022-08-04T10:08:16.066Z,997.44
2022-08-04T10:09:07.846Z,997.33
2022-08-04T10:10:12.243Z,997.35
2022-08-04T10:11:16.666Z,997.37
2022-08-04T10:12:21.138Z,997.46
2022-08-04T10:13:25.499Z,997.40
2022-08-04T10:14:29.901Z,997.38
2022-08-04T10:15:34.309Z,997.37
2022-08-04T10:16:38.728Z,997.35
2022-08-04T10:17:50.405Z,997.39
2022-08-04T10:18:47.523Z,997.37
2022-08-04T10:19:51.908Z,997.29
2022-08-04T10:21:00.056Z,997.31
2022-08-04T10:22:28.552Z,997.33
2022-08-04T10:23:11.481Z,997.32
2022-08-04T10:24:09.508Z,997.25
2022-08-04T10:26:06.001Z,997.39
2022-08-04T10:26:18.330Z,997.27
2022-08-04T10:27:22.895Z,997.29
2022-08-04T10:28:27.101Z,997.25
2022-08-04T10:29:31.507Z,997.24
2022-08-04T10:30:35.900Z,997.27
2022-08-04T10:31:40.323Z,997.35
2022-08-04T10:32:44.718Z,997.22
2022-08-04T10:33:49.121Z,997.26
2022-08-04T10:34:53.526Z,997.27
2022-08-04T10:35:57.924Z,997.32
2022-08-04T10:37:02.341Z,997.27
2022-08-04T10:38:06.742Z,997.32
2022-08-04T10:39:13.826Z,997.34
2022-08-04T10:40:15.756Z,997.20
2022-08-04T10:41:19.955Z,997.19
2022-08-04T10:42:24.352Z,997.19
2022-08-04T10:43:28.747Z,997.24
2022-08-04T10:44:42.394Z,997.22
2022-08-04T10:45:37.538Z,997.23
2022-08-04T10:46:41.964Z,997.21
2022-08-04T10:47:53.444Z,997.20
2022-08-04T10:48:50.767Z,997.21
2022-08-04T10:49:55.256Z,997.21
2022-08-04T10:50:59.546Z,997.20
2022-08-04T10:52:03.973Z,997.17
2022-08-04T10:53:09.581Z,997.16
2022-08-04T10:54:12.775Z,997.23
2022-08-04T10:55:18.405Z,997.24
2022-08-04T10:56:21.597Z,997.22
2022-08-04T10:57:25.984Z,997.21
2022-08-04T10:58:47.039Z,997.22
2022-08-04T10:59:34.784Z,997.18
2022-08-04T11:00:39.176Z,997.12
2022-08-04T11:01:59.810Z,997.08
2022-08-04T11:02:48.102Z,997.04
2022-08-04T11:03:52.406Z,997.10
2022-08-04T11:04:56.810Z,997.16
2022-08-04T11:06:01.206Z,997.13
2022-08-04T11:07:05.618Z,997.11
2022-08-04T11:08:12.382Z,997.17
2022-08-04T11:09:15.209Z,997.05
2022-08-04T11:10:18.807Z,997.06
2022-08-04T11:11:23.206Z,997.10
2022-08-04T11:12:27.980Z,997.08
2022-08-04T11:13:32.385Z,997.17
2022-08-04T11:14:36.786Z,997.24
2022-08-04T11:15:41.157Z,997.17
2022-08-04T11:16:45.651Z,997.19
2022-08-04T11:17:50.037Z,997.21
2022-08-04T11:18:54.427Z,997.29
2022-08-04T11:20:12.609Z,997.24
2022-08-04T11:21:03.218Z,997.26
2022-08-04T11:22:08.567Z,997.35
2022-08-04T11:23:12.031Z,997.22
2022-08-04T11:24:16.429Z,997.21
2022-08-04T11:25:20.836Z,997.17
2022-08-04T11:26:25.229Z,997.20
2022-08-04T11:27:29.639Z,997.29
2022-08-04T11:28:34.042Z,997.34
2022-08-04T11:29:38.442Z,997.30
2022-08-04T11:30:42.831Z,997.25
2022-08-04T11:31:51.469Z,997.24
2022-08-04T11:32:51.660Z,997.21
2022-08-04T11:33:56.052Z,997.26
2022-08-04T11:35:00.446Z,997.29
2022-08-04T11:36:04.830Z,997.22
2022-08-04T11:37:14.355Z,997.24
2022-08-04T11:38:13.652Z,997.20
2022-08-04T11:39:18.085Z,997.29
2022-08-04T11:40:22.443Z,997.40
2022-08-04T11:41:26.833Z,997.35
2022-08-04T11:42:31.249Z,997.34
2022-08-04T11:44:00.737Z,997.28
2022-08-04T11:44:40.037Z,997.31
2022-08-04T11:45:44.433Z,997.33
2022-08-04T11:46:48.823Z,997.28
2022-08-04T11:47:53.252Z,997.35
2022-08-04T11:48:57.643Z,997.34
2022-08-04T11:50:02.044Z,997.35
2022-08-04T11:51:06.692Z,997.35
2022-08-04T11:52:10.867Z,997.36
2022-08-04T11:53:15.244Z,997.37
2022-08-04T11:54:19.645Z,997.35
2022-08-04T11:55:24.032Z,997.42
2022-08-04T11:56:37.143Z,997.45
2022-08-04T11:57:35.646Z,997.47
2022-08-04T11:58:37.244Z,997.34
2022-08-04T11:59:41.634Z,997.42
2022-08-04T12:00:46.035Z,997.36
2022-08-04T12:01:50.482Z,997.40
2022-08-04T12:02:54.845Z,997.52
2022-08-04T12:04:03.707Z,997.40
2022-08-04T12:05:03.636Z,997.42
2022-08-04T12:06:08.024Z,997.42
2022-08-04T12:08:16.828Z,997.53
2022-08-04T12:09:21.236Z,997.57
2022-08-04T12:10:41.344Z,997.57
2022-08-04T12:11:30.025Z,997.59
2022-08-04T12:12:34.439Z,997.60
2022-08-04T12:13:38.827Z,997.46
2022-08-04T12:14:44.069Z,997.51
2022-08-04T12:15:48.466Z,997.47
2022-08-04T12:16:52.918Z,997.65
2022-08-04T12:17:57.328Z,997.48
2022-08-04T12:19:03.095Z,997.53
2022-08-04T12:20:32.019Z,997.47
2022-08-04T12:21:10.547Z,997.67
2022-08-04T12:22:14.938Z,997.50
2022-08-04T12:23:20.585Z,997.50
2022-08-04T12:24:23.721Z,997.50
2022-08-04T12:25:28.099Z,997.52
2022-08-04T12:26:32.489Z,997.49
2022-08-04T12:27:36.904Z,997.46
2022-08-04T12:29:08.604Z,997.48
2022-08-04T12:29:54.335Z,997.56
2022-08-04T12:31:02.640Z,997.85
2022-08-04T12:31:54.412Z,997.66
2022-08-04T12:32:58.812Z,997.61
2022-08-04T12:34:06.325Z,997.64
2022-08-04T12:35:07.582Z,997.61
2022-08-04T12:36:11.965Z,997.57
2022-08-04T12:37:22.056Z,997.68
2022-08-04T12:38:20.753Z,997.63
2022-08-04T12:39:25.151Z,997.58
2022-08-04T12:40:31.180Z,997.68
2022-08-04T12:41:35.922Z,997.67
2022-08-04T12:42:38.294Z,997.71
2022-08-04T12:43:42.682Z,997.65
2022-08-04T12:44:47.054Z,997.69
2022-08-04T12:45:51.453Z,997.68
2022-08-04T12:46:55.815Z,997.73
2022-08-04T12:48:00.224Z,997.73
2022-08-04T12:49:04.590Z,997.71
2022-08-04T12:50:08.975Z,997.66
2022-08-04T12:52:06.775Z,997.67
2022-08-04T12:52:17.732Z,997.63
2022-08-04T12:53:31.839Z,997.65
2022-08-04T12:54:29.040Z,997.67
2022-08-04T12:55:30.892Z,997.61
2022-08-04T12:56:35.284Z,997.64
2022-08-04T12:57:39.683Z,997.86
2022-08-04T12:58:44.217Z,997.71
2022-08-04T12:59:57.050Z,997.83
2022-08-04T13:00:52.880Z,997.71
2022-08-04T13:02:10.105Z,997.69
2022-08-04T13:03:01.595Z,997.90
2022-08-04T13:04:05.956Z,997.84
2022-08-04T13:05:10.336Z,997.74
2022-08-04T13:06:18.483Z,997.74
2022-08-04T13:07:19.066Z,998.00
2022-08-04T13:08:23.459Z,997.74
2022-08-04T13:09:27.818Z,997.73
2022-08-04T13:10:32.176Z,997.77
2022-08-04T13:11:36.540Z,997.64
2022-08-04T13:12:40.916Z,997.68
2022-08-04T13:13:45.279Z,997.66
2022-08-04T13:14:49.657Z,997.63
2022-08-04T13:15:56.655Z,997.69
2022-08-04T13:16:58.417Z,997.69
2022-08-04T13:18:02.849Z,997.74
2022-08-04T13:19:07.191Z,997.60
2022-08-04T13:20:13.987Z,997.61
2022-08-04T13:21:20.955Z,997.65
2022-08-04T13:22:20.292Z,997.76
2022-08-04T13:23:24.688Z,997.76
2022-08-04T13:24:31.122Z,997.63
2022-08-04T13:26:44.301Z,997.67
2022-08-04T13:27:43.263Z,997.79
2022-08-04T13:28:46.574Z,997.65
2022-08-04T13:29:59.973Z,997.64
2022-08-04T13:30:25.228Z,997.65
2022-08-04T13:30:55.339Z,997.71
2022-08-04T13:31:59.707Z,997.73
2022-08-04T13:33:04.119Z,997.73
2022-08-04T13:34:08.500Z,997.64
2022-08-04T13:35:12.881Z,997.70
2022-08-04T13:36:17.273Z,997.70
2022-08-04T13:37:21.794Z,997.71
2022-08-04T13:38:26.033Z,997.73
2022-08-04T13:39:30.469Z,997.69